createdAt,value
2022-10-24T00:00:29.349Z,13.47
2022-10-24T00:02:56.132Z,19.10
2022-10-24T00:05:23.084Z,11.13
2022-10-24T00:07:50.524Z,12.77
2022-10-24T00:10:18.333Z,15.33
2022-10-24T00:12:45.777Z,13.63
2022-10-24T00:15:13.098Z,12.67
2022-10-24T00:17:39.979Z,11.03
2022-10-24T00:20:07.557Z,13.80
2022-10-24T00:22:34.429Z,14.43
2022-10-24T00:25:01.157Z,15.20
2022-10-24T00:27:27.962Z,16.37
2022-10-24T00:29:54.826Z,11.53
2022-10-24T00:32:21.663Z,13.87
2022-10-24T00:34:48.862Z,17.27
2022-10-24T00:37:16.068Z,17.50
2022-10-24T00:39:43.218Z,13.83
2022-10-24T00:42:11.553Z,14.67
2022-10-24T00:44:40.291Z,16.50
2022-10-24T00:47:11.312Z,17.03
2022-10-24T00:49:52.700Z,14.37
2022-10-24T00:52:24.264Z,16.83
2022-10-24T00:54:54.100Z,19.53
2022-10-24T00:57:22.839Z,17.17
2022-10-24T00:59:55.831Z,16.87
2022-10-24T01:02:22.781Z,16.37
2022-10-24T01:04:49.837Z,10.20
2022-10-24T01:07:26.204Z,13.83
2022-10-24T01:10:26.815Z,12.57
2022-10-24T01:13:08.144Z,16.23
2022-10-24T01:15:47.887Z,10.60
2022-10-24T01:18:23.907Z,15.60
2022-10-24T01:20:56.388Z,18.27
2022-10-24T01:23:30.143Z,16.30
2022-10-24T01:25:56.687Z,16.03
2022-10-24T01:28:30.810Z,13.47
2022-10-24T01:31:08.562Z,13.03
2022-10-24T01:34:35.074Z,17.83
2022-10-24T01:37:04.885Z,16.20
2022-10-24T01:39:36.955Z,14.63
2022-10-24T01:42:06.564Z,17.35
2022-10-24T01:44:41.367Z,15.30
2022-10-24T01:47:24.654Z,12.23
2022-10-24T01:50:00.970Z,13.13
2022-10-24T01:52:31.736Z,12.97
2022-10-24T01:54:58.600Z,11.87
2022-10-24T01:57:29.710Z,16.83
2022-10-24T01:59:57.079Z,13.73
2022-10-24T02:02:34.816Z,16.03
2022-10-24T02:05:12.894Z,17.00
2022-10-24T02:07:43.435Z,12.90
2022-10-24T02:10:17.585Z,12.50
2022-10-24T02:12:48.842Z,20.37
2022-10-24T02:15:24.275Z,13.43
2022-10-24T02:17:51.847Z,15.30
2022-10-24T02:20:24.127Z,14.23
2022-10-24T02:23:04.407Z,13.10
2022-10-24T02:25:36.480Z,11.27
2022-10-24T02:28:15.356Z,14.80
2022-10-24T02:31:01.069Z,12.33
2022-10-24T02:33:30.455Z,16.77
2022-10-24T02:35:58.724Z,14.27
2022-10-24T02:38:31.825Z,16.63
2022-10-24T02:41:01.488Z,14.27
2022-10-24T02:43:30.230Z,13.60
2022-10-24T02:45:59.073Z,15.43
2022-10-24T02:48:30.584Z,12.47
2022-10-24T02:50:58.038Z,14.60
2022-10-24T02:53:26.376Z,14.30
2022-10-24T02:55:53.311Z,16.87
2022-10-24T02:58:20.275Z,13.93
2022-10-24T03:00:47.365Z,16.20
2022-10-24T03:03:14.296Z,14.00
2022-10-24T03:05:41.103Z,15.57
2022-10-24T03:08:08.059Z,11.10
2022-10-24T03:10:34.859Z,18.77
2022-10-24T03:13:01.507Z,8.67
2022-10-24T03:15:28.398Z,14.37
2022-10-24T03:17:55.061Z,13.83
2022-10-24T03:20:21.743Z,12.87
2022-10-24T03:22:48.772Z,13.57
2022-10-24T03:25:15.573Z,12.70
2022-10-24T03:27:42.483Z,12.43
2022-10-24T03:30:10.099Z,15.73
2022-10-24T03:32:36.744Z,14.83
2022-10-24T03:35:04.043Z,12.63
2022-10-24T03:37:31.008Z,13.53
2022-10-24T03:39:57.783Z,13.20
2022-10-24T03:42:24.486Z,7.13
2022-10-24T03:44:51.392Z,11.43
2022-10-24T03:47:18.114Z,9.23
2022-10-24T03:49:44.947Z,14.10
2022-10-24T03:52:12.575Z,13.93
2022-10-24T03:54:39.656Z,12.43
2022-10-24T03:57:06.584Z,9.97
2022-10-24T03:59:33.489Z,14.17
2022-10-24T04:02:01.547Z,12.57
2022-10-24T04:04:28.361Z,12.63
2022-10-24T04:06:58.895Z,14.70
2022-10-24T04:09:25.576Z,11.47
2022-10-24T04:11:53.539Z,13.77
2022-10-24T04:14:21.852Z,12.73
2022-10-24T04:16:48.862Z,10.73
2022-10-24T04:19:17.942Z,12.37
2022-10-24T04:21:45.909Z,10.57
2022-10-24T04:24:12.733Z,12.90
2022-10-24T04:26:39.503Z,11.97
2022-10-24T04:29:06.597Z,9.97
2022-10-24T04:36:15.717Z,13.37
2022-10-24T04:39:42.121Z,12.90
2022-10-24T04:46:59.985Z,10.43
2022-10-24T04:50:26.443Z,13.53
2022-10-24T04:57:22.519Z,10.10
2022-10-24T05:07:42.579Z,13.27
2022-10-24T05:10:10.304Z,13.60
2022-10-24T05:12:37.177Z,10.53
2022-10-24T05:15:05.169Z,12.93
2022-10-24T05:17:31.841Z,14.87
2022-10-24T05:19:58.588Z,8.70
2022-10-24T05:22:25.585Z,11.77
2022-10-24T05:24:52.398Z,11.80
2022-10-24T05:27:24.553Z,11.47
2022-10-24T05:29:53.004Z,14.05
2022-10-24T05:32:21.048Z,12.73
2022-10-24T05:34:47.687Z,18.00
2022-10-24T05:37:14.735Z,11.20
2022-10-24T05:39:41.737Z,9.97
2022-10-24T05:42:08.788Z,11.83
2022-10-24T05:44:35.554Z,13.87
2022-10-24T05:47:02.401Z,17.07
2022-10-24T05:49:29.128Z,18.43
2022-10-24T05:51:59.066Z,18.73
2022-10-24T05:54:30.280Z,12.47
2022-10-24T05:57:04.851Z,12.70
2022-10-24T05:59:31.579Z,12.53
2022-10-24T06:01:58.630Z,10.07
2022-10-24T06:04:25.575Z,9.33
2022-10-24T06:06:52.237Z,13.37
2022-10-24T06:09:18.959Z,9.47
2022-10-24T06:11:45.851Z,11.93
2022-10-24T06:14:12.614Z,7.97
2022-10-24T06:16:39.419Z,7.00
2022-10-24T06:19:06.236Z,8.67
2022-10-24T06:21:33.037Z,8.77
2022-10-24T06:23:59.791Z,10.53
2022-10-24T06:26:26.687Z,8.37
2022-10-24T06:29:53.087Z,10.40
2022-10-24T06:37:12.504Z,7.73
2022-10-24T06:40:38.917Z,8.27
2022-10-24T06:43:19.935Z,7.57
2022-10-24T06:46:46.508Z,9.13
2022-10-24T06:50:12.987Z,7.40
2022-10-24T06:57:21.962Z,9.93
2022-10-24T07:00:48.556Z,11.17
2022-10-24T07:04:15.260Z,8.23
2022-10-24T07:07:41.800Z,11.83
2022-10-24T07:15:01.132Z,6.97
2022-10-24T07:18:24.011Z,8.53
2022-10-24T07:25:42.897Z,8.47
2022-10-24T07:29:09.524Z,9.70
2022-10-24T07:36:17.239Z,7.73
2022-10-24T07:39:43.683Z,5.40
2022-10-24T07:43:13.423Z,8.40
2022-10-24T07:46:39.845Z,6.83
2022-10-24T07:52:59.376Z,7.40
2022-10-24T07:55:26.201Z,11.17
2022-10-24T07:57:53.076Z,8.13
2022-10-24T08:00:20.081Z,8.33
2022-10-24T08:02:47.246Z,6.27
2022-10-24T08:05:13.968Z,9.07
2022-10-24T08:07:41.562Z,10.27
2022-10-24T08:11:08.081Z,10.40
2022-10-24T08:14:34.584Z,10.50
2022-10-24T08:18:01.090Z,2.63
2022-10-24T08:21:27.565Z,4.70
2022-10-24T08:23:55.577Z,18.67
2022-10-24T08:26:24.963Z,5.43
2022-10-24T08:28:53.419Z,4.40
2022-10-24T08:31:21.982Z,8.73
2022-10-24T08:33:50.970Z,5.87
2022-10-24T08:36:24.588Z,5.00
2022-10-24T08:38:51.276Z,5.27
2022-10-24T08:41:27.337Z,2.60
2022-10-24T08:43:56.529Z,4.37
2022-10-24T08:46:44.539Z,4.77
2022-10-24T08:49:26.672Z,4.57
2022-10-24T08:52:03.912Z,4.18
2022-10-24T08:54:37.647Z,5.00
2022-10-24T08:57:06.075Z,5.87
2022-10-24T08:59:36.043Z,5.07
2022-10-24T09:02:14.095Z,4.73
2022-10-24T09:04:49.338Z,2.57
2022-10-24T09:07:22.054Z,4.00
2022-10-24T09:12:21.106Z,2.37
2022-10-24T09:14:57.891Z,4.00
2022-10-24T09:17:31.961Z,2.50
2022-10-24T09:20:04.786Z,3.23
2022-10-24T09:25:06.576Z,3.73
2022-10-24T09:27:39.902Z,4.20
2022-10-24T09:30:15.128Z,1.97
2022-10-24T09:32:43.386Z,3.80
2022-10-24T09:35:18.341Z,2.73
2022-10-24T09:37:55.894Z,5.13
2022-10-24T09:40:30.075Z,1.13
2022-10-24T09:43:19.535Z,2.80
2022-10-24T09:45:51.398Z,1.10
2022-10-24T09:48:39.893Z,2.78
2022-10-24T09:51:07.883Z,3.53
2022-10-24T09:53:41.064Z,1.83
2022-10-24T09:56:11.934Z,4.97
2022-10-24T09:58:38.679Z,4.00
2022-10-24T10:01:14.764Z,5.07
2022-10-24T10:03:41.560Z,3.80
2022-10-24T10:06:21.825Z,1.70
2022-10-24T10:08:51.888Z,3.73
2022-10-24T10:11:26.965Z,3.33
2022-10-24T10:13:54.555Z,5.87
2022-10-24T10:16:39.966Z,3.23
2022-10-24T10:19:20.197Z,3.33
2022-10-24T10:21:58.043Z,4.83
2022-10-24T10:24:44.239Z,2.20
2022-10-24T10:27:38.594Z,3.23
2022-10-24T10:30:12.021Z,1.60
2022-10-24T10:33:12.823Z,3.50
2022-10-24T10:36:24.273Z,3.07
2022-10-24T10:39:06.108Z,1.73
2022-10-24T10:41:52.255Z,4.07
2022-10-24T10:44:47.076Z,3.63
2022-10-24T10:47:41.532Z,4.57
2022-10-24T10:50:47.256Z,6.00
2022-10-24T10:53:39.566Z,2.10
2022-10-24T10:56:39.334Z,2.00
2022-10-24T10:59:14.863Z,2.30
2022-10-24T11:01:44.885Z,1.97
2022-10-24T11:04:20.741Z,2.30
2022-10-24T11:09:48.373Z,4.13
2022-10-24T11:12:25.117Z,2.60
2022-10-24T11:15:14.991Z,3.47
2022-10-24T11:17:54.984Z,1.97
2022-10-24T11:20:44.808Z,3.93
2022-10-24T11:23:18.941Z,1.07
2022-10-24T11:26:16.873Z,2.43
2022-10-24T11:28:59.927Z,2.50
2022-10-24T11:31:38.635Z,2.60
2022-10-24T11:34:23.864Z,2.27
2022-10-24T11:37:19.616Z,2.73
2022-10-24T11:40:04.016Z,2.10
2022-10-24T11:42:46.094Z,3.00
2022-10-24T11:45:18.922Z,1.35
2022-10-24T11:47:58.102Z,1.88
2022-10-24T11:50:28.055Z,1.20
2022-10-24T11:53:28.790Z,1.47
2022-10-24T11:56:04.489Z,2.53
2022-10-24T11:58:36.335Z,2.20
2022-10-24T12:01:24.065Z,4.28
2022-10-24T12:03:59.727Z,4.00
2022-10-24T12:07:01.823Z,4.23
2022-10-24T12:09:34.558Z,2.73
2022-10-24T12:12:26.062Z,2.43
2022-10-24T12:15:20.774Z,0.60
2022-10-24T12:18:14.610Z,1.63
2022-10-24T12:20:42.393Z,1.67
2022-10-24T12:23:21.759Z,1.57
2022-10-24T12:26:01.255Z,1.70
2022-10-24T12:28:28.239Z,1.73
2022-10-24T12:31:10.260Z,1.93
2022-10-24T12:33:37.408Z,6.50
2022-10-24T12:36:04.478Z,3.40
2022-10-24T12:38:31.245Z,0.70
2022-10-24T12:40:58.955Z,2.90
2022-10-24T12:43:36.132Z,3.80
2022-10-24T12:46:18.866Z,0.93
2022-10-24T12:48:58.850Z,1.43
2022-10-24T12:51:31.108Z,3.53
2022-10-24T12:54:02.479Z,2.13
2022-10-24T12:56:30.656Z,1.63
2022-10-24T12:59:00.959Z,2.60
2022-10-24T13:01:34.591Z,3.30
2022-10-24T13:04:31.573Z,2.33
2022-10-24T13:07:25.892Z,2.13
2022-10-24T13:10:29.999Z,4.37
2022-10-24T13:13:15.331Z,4.17
2022-10-24T13:15:54.283Z,2.67
2022-10-24T13:18:23.681Z,2.17
2022-10-24T13:21:24.262Z,1.73
2022-10-24T13:23:51.397Z,1.63
2022-10-24T13:26:36.790Z,5.87
2022-10-24T13:29:04.746Z,1.50
2022-10-24T13:31:34.378Z,3.37
2022-10-24T13:34:15.896Z,3.33
2022-10-24T13:36:44.350Z,3.47
2022-10-24T13:39:16.575Z,1.20
2022-10-24T13:41:48.319Z,2.38
2022-10-24T13:44:22.185Z,1.30
2022-10-24T13:47:28.358Z,1.07
2022-10-24T13:49:58.794Z,1.47
2022-10-24T13:52:50.326Z,1.50
2022-10-24T13:55:46.760Z,0.80
2022-10-24T13:58:22.989Z,2.17
2022-10-24T14:01:30.433Z,0.87
2022-10-24T14:03:59.366Z,5.77
2022-10-24T14:06:29.130Z,2.20
2022-10-24T14:09:06.431Z,1.60
2022-10-24T14:11:35.361Z,1.87
2022-10-24T14:14:07.053Z,2.47
2022-10-24T14:16:35.038Z,2.05
2022-10-24T14:19:31.105Z,1.67
2022-10-24T14:21:59.595Z,2.73
2022-10-24T14:24:26.472Z,3.47
2022-10-24T14:26:57.024Z,2.83
2022-10-24T14:29:32.638Z,1.00
2022-10-24T14:31:59.680Z,4.10
2022-10-24T14:34:27.267Z,1.50
2022-10-24T14:36:56.032Z,3.63
2022-10-24T14:39:26.387Z,1.40
2022-10-24T14:41:54.194Z,2.33
2022-10-24T14:44:22.778Z,0.83
2022-10-24T14:47:28.821Z,0.60
2022-10-24T14:49:56.581Z,2.37
2022-10-24T14:52:33.561Z,3.60
2022-10-24T14:55:05.257Z,1.50
2022-10-24T14:57:34.576Z,1.30
2022-10-24T15:00:07.609Z,0.87
2022-10-24T15:02:43.243Z,1.43
2022-10-24T15:05:19.599Z,2.13
2022-10-24T15:08:16.577Z,3.50
2022-10-24T15:10:40.800Z,3.15
2022-10-24T15:13:23.709Z,2.43
2022-10-24T15:16:01.236Z,3.83
2022-10-24T15:18:30.980Z,0.90
2022-10-24T15:21:16.244Z,2.50
2022-10-24T15:24:02.026Z,3.83
2022-10-24T15:26:40.642Z,2.70
2022-10-24T15:29:14.955Z,1.00
2022-10-24T15:31:44.346Z,0.73
2022-10-24T15:34:23.215Z,1.40
2022-10-24T15:36:52.574Z,0.80
2022-10-24T15:39:24.745Z,1.60
2022-10-24T15:41:52.632Z,1.02
2022-10-24T15:44:25.131Z,0.63
2022-10-24T15:46:51.851Z,2.63
2022-10-24T15:49:21.124Z,2.43
2022-10-24T15:51:50.446Z,2.80
2022-10-24T15:54:19.329Z,1.77
2022-10-24T15:56:46.258Z,1.60
2022-10-24T15:59:13.167Z,3.73
2022-10-24T16:01:44.527Z,2.60
2022-10-24T16:04:11.604Z,2.87
2022-10-24T16:06:38.588Z,5.83
2022-10-24T16:09:07.532Z,8.87
2022-10-24T16:11:34.326Z,12.13
2022-10-24T16:14:01.315Z,2.20
2022-10-24T16:16:27.943Z,2.23
2022-10-24T16:18:54.698Z,1.50
2022-10-24T16:21:22.228Z,1.73
2022-10-24T16:26:21.307Z,23.02
2022-10-24T16:28:48.902Z,11.87
2022-10-24T16:31:23.622Z,10.83
2022-10-24T16:33:51.930Z,10.37
2022-10-24T16:36:22.207Z,15.77
2022-10-24T16:41:21.117Z,2.47
2022-10-24T16:43:49.872Z,1.60
2022-10-24T16:46:21.525Z,1.73
2022-10-24T16:48:49.691Z,1.87
2022-10-24T16:51:20.586Z,3.23
2022-10-24T16:53:47.505Z,4.47
2022-10-24T16:56:15.716Z,1.23
2022-10-24T16:58:43.220Z,3.40
2022-10-24T17:01:12.673Z,1.53
2022-10-24T17:03:40.032Z,3.80
2022-10-24T17:06:07.778Z,5.07
2022-10-24T17:08:34.853Z,5.10
2022-10-24T17:11:01.709Z,4.60
2022-10-24T17:13:28.817Z,2.67
2022-10-24T17:15:56.725Z,2.00
2022-10-24T17:18:25.584Z,3.77
2022-10-24T17:20:59.062Z,2.73
2022-10-24T17:23:26.480Z,3.80
2022-10-24T17:25:53.995Z,5.33
2022-10-24T17:28:21.035Z,8.10
2022-10-24T17:30:48.214Z,2.57
2022-10-24T17:33:15.139Z,1.80
2022-10-24T17:35:50.829Z,2.60
2022-10-24T17:38:39.898Z,1.33
2022-10-24T17:41:21.546Z,3.83
2022-10-24T17:43:48.685Z,4.80
2022-10-24T17:46:15.632Z,3.53
2022-10-24T17:48:42.520Z,9.70
2022-10-24T17:51:11.546Z,3.77
2022-10-24T17:53:38.152Z,7.73
2022-10-24T17:56:05.221Z,6.30
2022-10-24T17:58:32.080Z,4.90
2022-10-24T18:00:58.790Z,3.10
2022-10-24T18:03:27.872Z,4.07
2022-10-24T18:06:06.636Z,6.87
2022-10-24T18:08:34.061Z,3.47
2022-10-24T18:11:09.367Z,17.33
2022-10-24T18:13:38.006Z,12.07
2022-10-24T18:16:09.068Z,3.30
2022-10-24T18:18:36.155Z,23.07
2022-10-24T18:21:10.987Z,3.73
2022-10-24T18:23:38.369Z,4.90
2022-10-24T18:26:13.603Z,2.70
2022-10-24T18:28:43.005Z,5.53
2022-10-24T18:31:12.231Z,2.63
2022-10-24T18:33:40.977Z,4.30
2022-10-24T18:36:10.536Z,5.50
2022-10-24T18:38:37.697Z,4.77
2022-10-24T18:41:04.941Z,3.20
2022-10-24T18:43:31.852Z,6.27
2022-10-24T18:46:01.343Z,1.93
2022-10-24T18:48:28.805Z,2.50
2022-10-24T18:50:55.740Z,2.93
2022-10-24T18:53:26.410Z,3.60
2022-10-24T18:55:53.691Z,3.77
2022-10-24T18:58:20.785Z,2.57
2022-10-24T19:00:48.185Z,4.27
2022-10-24T19:03:31.698Z,4.37
2022-10-24T19:06:10.651Z,4.77
2022-10-24T19:08:37.703Z,2.90
2022-10-24T19:11:04.765Z,2.33
2022-10-24T19:13:31.597Z,1.40
2022-10-24T19:16:01.038Z,3.60
2022-10-24T19:18:31.277Z,2.93
2022-10-24T19:20:59.318Z,3.77
2022-10-24T19:23:26.319Z,5.93
2022-10-24T19:25:53.515Z,4.93
2022-10-24T19:28:20.766Z,4.03
2022-10-24T19:30:48.744Z,13.93
2022-10-24T19:33:16.649Z,12.20
2022-10-24T19:35:47.603Z,3.20
2022-10-24T19:38:18.780Z,8.73
2022-10-24T19:40:52.047Z,9.07
2022-10-24T19:43:20.706Z,12.67
2022-10-24T19:46:07.303Z,5.10
2022-10-24T19:48:39.875Z,8.93
2022-10-24T19:51:12.733Z,6.87
2022-10-24T19:56:34.560Z,5.20
2022-10-24T19:59:01.794Z,3.03
2022-10-24T20:01:30.194Z,3.40
2022-10-24T20:03:57.381Z,3.00
2022-10-24T20:06:27.501Z,7.10
2022-10-24T20:08:54.341Z,3.00
2022-10-24T20:11:21.701Z,2.93
2022-10-24T20:13:50.541Z,3.67
2022-10-24T20:16:18.288Z,3.70
2022-10-24T20:18:45.982Z,4.53
2022-10-24T20:21:16.515Z,4.97
2022-10-24T20:23:43.907Z,2.73
2022-10-24T20:26:22.562Z,2.30
2022-10-24T20:28:51.154Z,4.20
2022-10-24T20:31:25.727Z,2.00
2022-10-24T20:33:53.221Z,4.43
2022-10-24T20:36:21.421Z,5.50
2022-10-24T20:38:48.525Z,3.93
2022-10-24T20:41:15.324Z,3.03
2022-10-24T20:43:42.238Z,1.60
2022-10-24T20:46:09.224Z,3.00
2022-10-24T20:48:35.966Z,1.90
2022-10-24T20:51:08.616Z,3.97
2022-10-24T20:53:35.668Z,6.55
2022-10-24T20:56:11.514Z,1.67
2022-10-24T20:58:41.079Z,3.43
2022-10-24T21:01:22.614Z,5.33
2022-10-24T21:03:51.231Z,2.43
2022-10-24T21:06:31.279Z,5.33
2022-10-24T21:09:01.320Z,2.97
2022-10-24T21:11:30.227Z,5.73
2022-10-24T21:14:05.949Z,3.17
2022-10-24T21:16:33.714Z,3.93
2022-10-24T21:19:00.985Z,3.13
2022-10-24T21:21:28.460Z,5.33
2022-10-24T21:24:02.673Z,3.80
2022-10-24T21:26:39.945Z,3.30
2022-10-24T21:29:14.942Z,2.27
2022-10-24T21:31:55.106Z,4.57
2022-10-24T21:38:04.863Z,4.53
2022-10-24T21:40:31.568Z,3.33
2022-10-24T21:43:00.518Z,3.40
2022-10-24T21:45:27.447Z,3.80
2022-10-24T21:47:54.215Z,5.43
2022-10-24T21:50:20.988Z,3.27
2022-10-24T21:52:48.193Z,3.73
2022-10-24T21:55:15.241Z,3.70
2022-10-24T21:57:41.967Z,3.43
2022-10-24T22:00:09.429Z,2.33
2022-10-24T22:02:36.360Z,4.50
2022-10-24T22:05:03.161Z,4.27
2022-10-24T22:07:30.006Z,3.13
2022-10-24T22:09:56.811Z,2.50
2022-10-24T22:12:23.452Z,1.40
2022-10-24T22:14:50.127Z,1.43
2022-10-24T22:17:16.953Z,2.10
2022-10-24T22:19:43.701Z,2.40
2022-10-24T22:22:10.644Z,2.27
2022-10-24T22:24:37.412Z,2.10
2022-10-24T22:27:04.163Z,3.53
2022-10-24T22:29:30.849Z,2.70
2022-10-24T22:31:58.029Z,5.43
2022-10-24T22:34:26.081Z,4.43
2022-10-24T22:37:13.099Z,4.00
2022-10-24T22:39:40.543Z,3.87
2022-10-24T22:42:11.507Z,2.37
2022-10-24T22:44:40.698Z,5.07
2022-10-24T22:47:13.427Z,4.23
2022-10-24T22:50:03.630Z,5.30
2022-10-24T22:52:30.596Z,2.77
2022-10-24T22:54:57.668Z,2.80
2022-10-24T22:57:24.802Z,5.10
2022-10-24T22:59:51.693Z,6.80
2022-10-24T23:02:30.439Z,6.00
2022-10-24T23:05:28.084Z,4.07
2022-10-24T23:08:00.357Z,6.00
2022-10-24T23:10:27.105Z,6.53
2022-10-24T23:12:54.227Z,4.27
2022-10-24T23:15:22.106Z,4.87
2022-10-24T23:17:50.589Z,5.37
2022-10-24T23:20:17.344Z,4.13
2022-10-24T23:22:54.281Z,5.33
2022-10-24T23:25:30.282Z,3.53
2022-10-24T23:28:24.483Z,4.20
2022-10-24T23:30:51.381Z,2.00
2022-10-24T23:33:27.287Z,1.33
2022-10-24T23:35:58.270Z,3.40
2022-10-24T23:38:25.873Z,2.50
2022-10-24T23:40:53.355Z,2.30
2022-10-24T23:43:21.597Z,2.23
2022-10-24T23:46:07.042Z,1.73
2022-10-24T23:48:55.808Z,2.80
2022-10-24T23:51:32.658Z,3.53
2022-10-24T23:53:59.752Z,2.50
2022-10-24T23:56:28.609Z,3.07
2022-10-24T23:58:56.296Z,3.97
